sensor_id;sensor_type;location;lat;lon;timestamp;pressure;altitude;pressure_sealevel;temperature;humidity
29433;BME280;16405;53.964;13.448;2022-11-24T00:01:22;100328.81;;;1.71;100.00
29433;BME280;16405;53.964;13.448;2022-11-24T00:04:01;100335.72;;;1.72;100.00
29433;BME280;16405;53.964;13.448;2022-11-24T00:06:29;100331.69;;;1.54;100.00
29433;BME280;16405;53.964;13.448;2022-11-24T00:08:55;100329.91;;;1.58;100.00
29433;BME280;16405;53.964;13.448;2022-11-24T00:11:24;100334.13;;;1.62;100.00
29433;BME280;16405;53.964;13.448;2022-11-24T00:13:51;100342.72;;;1.67;100.00
29433;BME280;16405;53.964;13.448;2022-11-24T00:16:20;100341.97;;;1.60;100.00
29433;BME280;16405;53.964;13.448;2022-11-24T00:18:52;100343.66;;;1.63;100.00
29433;BME280;16405;53.964;13.448;2022-11-24T00:21:19;100344.38;;;1.71;100.00
29433;BME280;16405;53.964;13.448;2022-11-24T00:23:46;100345.31;;;1.69;100.00
29433;BME280;16405;53.964;13.448;2022-11-24T00:28:44;100346.19;;;1.66;100.00
29433;BME280;16405;53.964;13.448;2022-11-24T00:31:26;100341.88;;;1.65;100.00
29433;BME280;16405;53.964;13.448;2022-11-24T00:33:59;100347.84;;;1.70;100.00
29433;BME280;16405;53.964;13.448;2022-11-24T00:36:28;100342.75;;;1.64;100.00
29433;BME280;16405;53.964;13.448;2022-11-24T00:39:01;100345.31;;;1.69;100.00
29433;BME280;16405;53.964;13.448;2022-11-24T00:41:30;100341.78;;;1.71;100.00
29433;BME280;16405;53.964;13.448;2022-11-24T00:43:56;100340.97;;;1.68;100.00
29433;BME280;16405;53.964;13.448;2022-11-24T00:46:23;100350.50;;;1.69;100.00
29433;BME280;16405;53.964;13.448;2022-11-24T00:48:49;100349.72;;;1.62;100.00
29433;BME280;16405;53.964;13.448;2022-11-24T00:51:20;100357.44;;;1.67;100.00
29433;BME280;16405;53.964;13.448;2022-11-24T00:53:46;100358.28;;;1.67;100.00
29433;BME280;16405;53.964;13.448;2022-11-24T00:56:12;100366.91;;;1.69;100.00
29433;BME280;16405;53.964;13.448;2022-11-24T00:58:38;100369.44;;;1.72;100.00
29433;BME280;16405;53.964;13.448;2022-11-24T01:01:10;100367.69;;;1.73;100.00
29433;BME280;16405;53.964;13.448;2022-11-24T01:03:36;100360.88;;;1.69;100.00
29433;BME280;16405;53.964;13.448;2022-11-24T01:06:12;100364.25;;;1.74;100.00
29433;BME280;16405;53.964;13.448;2022-11-24T01:08:39;100357.38;;;1.70;100.00
29433;BME280;16405;53.964;13.448;2022-11-24T01:11:27;100348.75;;;1.68;100.00
29433;BME280;16405;53.964;13.448;2022-11-24T01:13:58;100346.19;;;1.66;100.00
29433;BME280;16405;53.964;13.448;2022-11-24T01:16:33;100351.34;;;1.68;100.00
29433;BME280;16405;53.964;13.448;2022-11-24T01:19:00;100349.59;;;1.71;100.00
29433;BME280;16405;53.964;13.448;2022-11-24T01:21:29;100350.59;;;1.62;100.00
29433;BME280;16405;53.964;13.448;2022-11-24T01:23:55;100354.81;;;1.68;100.00
29433;BME280;16405;53.964;13.448;2022-11-24T01:26:22;100356.47;;;1.72;100.00
29433;BME280;16405;53.964;13.448;2022-11-24T01:28:55;100350.53;;;1.64;100.00
29433;BME280;16405;53.964;13.448;2022-11-24T01:31:23;100357.53;;;1.60;100.00
29433;BME280;16405;53.964;13.448;2022-11-24T01:33:49;100356.69;;;1.60;100.00
29433;BME280;16405;53.964;13.448;2022-11-24T01:36:15;100362.59;;;1.68;100.00
29433;BME280;16405;53.964;13.448;2022-11-24T01:38:41;100367.81;;;1.67;100.00
29433;BME280;16405;53.964;13.448;2022-11-24T01:41:20;100366.91;;;1.69;100.00
29433;BME280;16405;53.964;13.448;2022-11-24T01:43:48;100366.03;;;1.70;100.00
29433;BME280;16405;53.964;13.448;2022-11-24T01:51:47;100348.84;;;1.61;100.00
29433;BME280;16405;53.964;13.448;2022-11-24T01:54:24;100348.84;;;1.61;100.00
29433;BME280;16405;53.964;13.448;2022-11-24T01:57:06;100353.25;;;1.58;100.00
29433;BME280;16405;53.964;13.448;2022-11-24T01:59:34;100354.94;;;1.60;100.00
29433;BME280;16405;53.964;13.448;2022-11-24T02:02:01;100360.13;;;1.60;100.00
29433;BME280;16405;53.964;13.448;2022-11-24T02:04:29;100358.31;;;1.66;100.00
29433;BME280;16405;53.964;13.448;2022-11-24T02:06:59;100362.56;;;1.71;100.00
29433;BME280;16405;53.964;13.448;2022-11-24T02:09:44;100359.97;;;1.70;100.00
29433;BME280;16405;53.964;13.448;2022-11-24T02:12:13;100370.44;;;1.67;100.00
29433;BME280;16405;53.964;13.448;2022-11-24T02:14:40;100366.09;;;1.67;100.00
29433;BME280;16405;53.964;13.448;2022-11-24T02:17:06;100354.91;;;1.62;100.00
29433;BME280;16405;53.964;13.448;2022-11-24T02:19:46;100363.56;;;1.62;100.00
29433;BME280;16405;53.964;13.448;2022-11-24T02:22:56;100368.72;;;1.64;100.00
29433;BME280;16405;53.964;13.448;2022-11-24T02:25:30;100371.34;;;1.62;100.00
29433;BME280;16405;53.964;13.448;2022-11-24T02:28:03;100366.13;;;1.64;100.00
29433;BME280;16405;53.964;13.448;2022-11-24T02:30:34;100365.41;;;1.56;100.00
29433;BME280;16405;53.964;13.448;2022-11-24T02:33:03;100364.50;;;1.57;100.00
29433;BME280;16405;53.964;13.448;2022-11-24T02:35:29;100366.25;;;1.58;100.00
29433;BME280;16405;53.964;13.448;2022-11-24T02:38:03;100364.44;;;1.61;100.00
29433;BME280;16405;53.964;13.448;2022-11-24T02:40:29;100372.13;;;1.66;100.00
29433;BME280;16405;53.964;13.448;2022-11-24T02:43:04;100362.69;;;1.62;100.00
29433;BME280;16405;53.964;13.448;2022-11-24T02:45:32;100363.63;;;1.58;100.00
29433;BME280;16405;53.964;13.448;2022-11-24T02:47:58;100367.09;;;1.57;100.00
29433;BME280;16405;53.964;13.448;2022-11-24T02:50:24;100372.25;;;1.60;100.00
29433;BME280;16405;53.964;13.448;2022-11-24T02:52:50;100356.81;;;1.51;100.00
29433;BME280;16405;53.964;13.448;2022-11-24T02:55:16;100360.44;;;1.40;100.00
29433;BME280;16405;53.964;13.448;2022-11-24T02:57:49;100361.22;;;1.47;100.00
29433;BME280;16405;53.964;13.448;2022-11-24T03:00:15;100361.22;;;1.47;100.00
29433;BME280;16405;53.964;13.448;2022-11-24T03:02:41;100360.44;;;1.40;100.00
29433;BME280;16405;53.964;13.448;2022-11-24T03:05:15;100365.66;;;1.39;100.00
29433;BME280;16405;53.964;13.448;2022-11-24T03:07:41;100370.84;;;1.39;100.00
29433;BME280;16405;53.964;13.448;2022-11-24T03:10:07;100374.19;;;1.46;100.00
29433;BME280;16405;53.964;13.448;2022-11-24T03:12:33;100378.63;;;1.39;100.00
29433;BME280;16405;53.964;13.448;2022-11-24T03:15:01;100380.38;;;1.37;100.00
29433;BME280;16405;53.964;13.448;2022-11-24T03:17:29;100386.34;;;1.42;100.00
29433;BME280;16405;53.964;13.448;2022-11-24T03:19:55;100380.28;;;1.43;100.00
29433;BME280;16405;53.964;13.448;2022-11-24T03:22:21;100388.16;;;1.37;100.00
29433;BME280;16405;53.964;13.448;2022-11-24T03:24:46;100391.69;;;1.31;100.00
29433;BME280;16405;53.964;13.448;2022-11-24T03:27:12;100389.94;;;1.32;100.00
29433;BME280;16405;53.964;13.448;2022-11-24T03:29:38;100393.34;;;1.38;100.00
29433;BME280;16405;53.964;13.448;2022-11-24T03:32:07;100399.41;;;1.36;100.00
29433;BME280;16405;53.964;13.448;2022-11-24T03:34:33;100408.84;;;1.41;100.00
29433;BME280;16405;53.964;13.448;2022-11-24T03:36:58;100406.31;;;1.38;100.00
29433;BME280;16405;53.964;13.448;2022-11-24T03:39:24;100402.75;;;1.42;100.00
29433;BME280;16405;53.964;13.448;2022-11-24T03:41:50;100404.56;;;1.39;100.00
29433;BME280;16405;53.964;13.448;2022-11-24T03:44:17;100408.97;;;1.32;100.00
29433;BME280;16405;53.964;13.448;2022-11-24T03:46:45;100408.84;;;1.41;100.00
29433;BME280;16405;53.964;13.448;2022-11-24T03:49:13;100404.47;;;1.45;100.00
29433;BME280;16405;53.964;13.448;2022-11-24T03:51:39;100407.94;;;1.44;100.00
29433;BME280;16405;53.964;13.448;2022-11-24T03:54:05;100405.34;;;1.42;100.00
29433;BME280;16405;53.964;13.448;2022-11-24T03:56:31;100408.06;;;1.36;100.00
29433;BME280;16405;53.964;13.448;2022-11-24T03:58:57;100407.09;;;1.43;100.00
29433;BME280;16405;53.964;13.448;2022-11-24T04:01:27;100408.78;;;1.44;100.00
29433;BME280;16405;53.964;13.448;2022-11-24T04:03:53;100408.00;;;1.39;100.00
29433;BME280;16405;53.964;13.448;2022-11-24T04:06:19;100414.97;;;1.36;100.00
29433;BME280;16405;53.964;13.448;2022-11-24T04:08:45;100406.38;;;1.32;100.00
29433;BME280;16405;53.964;13.448;2022-11-24T04:11:11;100403.81;;;1.29;100.00
29433;BME280;16405;53.964;13.448;2022-11-24T04:13:59;100404.72;;;1.25;100.00
29433;BME280;16405;53.964;13.448;2022-11-24T04:16:25;100397.84;;;1.24;100.00
29433;BME280;16405;53.964;13.448;2022-11-24T04:18:52;100408.16;;;1.27;100.00
29433;BME280;16405;53.964;13.448;2022-11-24T04:21:18;100412.50;;;1.25;100.00
29433;BME280;16405;53.964;13.448;2022-11-24T04:23:44;100420.28;;;1.28;100.00
29433;BME280;16405;53.964;13.448;2022-11-24T04:26:10;100425.47;;;1.27;100.00
29433;BME280;16405;53.964;13.448;2022-11-24T04:28:36;100419.44;;;1.26;100.00
29433;BME280;16405;53.964;13.448;2022-11-24T04:31:05;100418.47;;;1.33;100.00
29433;BME280;16405;53.964;13.448;2022-11-24T04:33:31;100428.91;;;1.29;100.00
29433;BME280;16405;53.964;13.448;2022-11-24T04:35:57;100432.34;;;1.32;100.00
29433;BME280;16405;53.964;13.448;2022-11-24T04:38:23;100425.41;;;1.33;100.00
29433;BME280;16405;53.964;13.448;2022-11-24T04:40:49;100422.88;;;1.28;100.00
29433;BME280;16405;53.964;13.448;2022-11-24T04:43:14;100426.38;;;1.24;100.00
29433;BME280;16405;53.964;13.448;2022-11-24T04:45:46;100423.00;;;1.19;100.00
29433;BME280;16405;53.964;13.448;2022-11-24T04:48:12;100428.13;;;1.22;100.00
29433;BME280;16405;53.964;13.448;2022-11-24T04:50:38;100429.88;;;1.21;100.00
29433;BME280;16405;53.964;13.448;2022-11-24T04:53:04;100460.88;;;1.31;100.00
29433;BME280;16405;53.964;13.448;2022-11-24T04:55:30;100457.25;;;1.44;100.00
29433;BME280;16405;53.964;13.448;2022-11-24T04:57:56;100471.88;;;1.50;100.00
29433;BME280;16405;53.964;13.448;2022-11-24T05:00:22;100470.03;;;1.58;100.00
29433;BME280;16405;53.964;13.448;2022-11-24T05:02:50;100475.19;;;1.59;100.00
29433;BME280;16405;53.964;13.448;2022-11-24T05:05:16;100472.59;;;1.61;100.00
29433;BME280;16405;53.964;13.448;2022-11-24T05:07:42;100470.03;;;1.58;100.00
29433;BME280;16405;53.964;13.448;2022-11-24T05:10:08;100482.13;;;1.60;100.00
29433;BME280;16405;53.964;13.448;2022-11-24T05:12:56;100482.28;;;1.47;100.00
29433;BME280;16405;53.964;13.448;2022-11-24T05:18:19;100483.19;;;1.42;100.00
29433;BME280;16405;53.964;13.448;2022-11-24T05:21:00;100487.53;;;1.43;100.00
29433;BME280;16405;53.964;13.448;2022-11-24T05:23:29;100489.22;;;1.44;100.00
29433;BME280;16405;53.964;13.448;2022-11-24T05:27:10;100491.88;;;1.40;100.00
29433;BME280;16405;53.964;13.448;2022-11-24T05:30:09;100488.34;;;1.47;100.00
29433;BME280;16405;53.964;13.448;2022-11-24T05:33:19;100477.16;;;1.42;100.00
29433;BME280;16405;53.964;13.448;2022-11-24T05:39:08;100464.44;;;1.22;100.00
29433;BME280;16405;53.964;13.448;2022-11-24T05:41:49;100471.31;;;1.25;100.00
29433;BME280;16405;53.964;13.448;2022-11-24T05:45:20;100468.72;;;1.26;100.00
29433;BME280;16405;53.964;13.448;2022-11-24T05:48:32;100469.56;;;1.30;100.00
29433;BME280;16405;53.964;13.448;2022-11-24T05:51:39;100472.88;;;1.39;100.00
29433;BME280;16405;53.964;13.448;2022-11-24T05:54:08;100468.59;;;1.37;100.00
29433;BME280;16405;53.964;13.448;2022-11-24T05:56:59;100471.13;;;1.41;100.00
29433;BME280;16405;53.964;13.448;2022-11-24T06:02:40;100496.03;;;1.53;100.00
29433;BME280;16405;53.964;13.448;2022-11-24T06:08:28;100505.56;;;1.53;100.00
29433;BME280;16405;53.964;13.448;2022-11-24T06:11:09;100509.06;;;1.50;100.00
29433;BME280;16405;53.964;13.448;2022-11-24T06:14:18;100509.09;;;1.47;100.00
29433;BME280;16405;53.964;13.448;2022-11-24T06:16:47;100512.50;;;1.51;100.00
29433;BME280;16405;53.964;13.448;2022-11-24T06:22:41;100522.03;;;1.50;100.00
29433;BME280;16405;53.964;13.448;2022-11-24T06:25:20;100533.19;;;1.57;100.00
29433;BME280;16405;53.964;13.448;2022-11-24T06:28:10;100534.88;;;1.61;100.00
29433;BME280;16405;53.964;13.448;2022-11-24T06:31:09;100538.31;;;1.61;100.00
29433;BME280;16405;53.964;13.448;2022-11-24T06:33:48;100541.81;;;1.60;100.00
29433;BME280;16405;53.964;13.448;2022-11-24T06:36:30;100545.25;;;1.59;100.00
29433;BME280;16405;53.964;13.448;2022-11-24T06:42:22;100548.75;;;1.60;100.00
29433;BME280;16405;53.964;13.448;2022-11-24T06:45:28;100551.38;;;1.55;100.00
29433;BME280;16405;53.964;13.448;2022-11-24T06:48:00;100554.75;;;1.62;100.00
29433;BME280;16405;53.964;13.448;2022-11-24T06:50:51;100553.94;;;1.60;100.00
29433;BME280;16405;53.964;13.448;2022-11-24T06:54:11;100548.00;;;1.49;100.00
29433;BME280;16405;53.964;13.448;2022-11-24T07:00:09;100559.28;;;1.44;100.00
29433;BME280;16405;53.964;13.448;2022-11-24T07:02:38;100554.09;;;1.44;100.00
29433;BME280;16405;53.964;13.448;2022-11-24T07:05:48;100567.03;;;1.48;100.00
29433;BME280;16405;53.964;13.448;2022-11-24T07:09:00;100572.19;;;1.51;100.00
29433;BME280;16405;53.964;13.448;2022-11-24T07:11:38;100580.75;;;1.59;100.00
29433;BME280;16405;53.964;13.448;2022-11-24T07:14:19;100575.53;;;1.60;100.00
29433;BME280;16405;53.964;13.448;2022-11-24T07:21:50;100582.75;;;1.35;100.00
29433;BME280;16405;53.964;13.448;2022-11-24T07:24:29;100588.78;;;1.37;100.00
29433;BME280;16405;53.964;13.448;2022-11-24T07:27:39;100590.53;;;1.34;100.00
29433;BME280;16405;53.964;13.448;2022-11-24T07:30:20;100593.13;;;1.35;100.00
29433;BME280;16405;53.964;13.448;2022-11-24T07:36:28;100605.13;;;1.46;100.00
29433;BME280;16405;53.964;13.448;2022-11-24T07:39:29;100611.16;;;1.48;100.00
29433;BME280;16405;53.964;13.448;2022-11-24T07:42:08;100605.13;;;1.47;100.00
29433;BME280;16405;53.964;13.448;2022-11-24T07:45:28;100602.59;;;1.41;100.00
29433;BME280;16405;53.964;13.448;2022-11-24T07:48:00;100616.38;;;1.44;100.00
29433;BME280;16405;53.964;13.448;2022-11-24T07:54:09;100621.50;;;1.51;100.00
29433;BME280;16405;53.964;13.448;2022-11-24T07:56:59;100621.47;;;1.52;100.00
29433;BME280;16405;53.964;13.448;2022-11-24T08:00:00;100625.03;;;1.45;100.00
29433;BME280;16405;53.964;13.448;2022-11-24T08:06:50;100607.72;;;1.42;100.00
29433;BME280;16405;53.964;13.448;2022-11-24T08:09:30;100616.38;;;1.44;100.00
29433;BME280;16405;53.964;13.448;2022-11-24T08:12:30;100619.06;;;1.34;100.00
29433;BME280;16405;53.964;13.448;2022-11-24T08:15:28;100625.09;;;1.40;100.00
29433;BME280;16405;53.964;13.448;2022-11-24T08:22:39;100608.00;;;1.16;100.00
29433;BME280;16405;53.964;13.448;2022-11-24T08:25:20;100612.34;;;1.19;100.00
29433;BME280;16405;53.964;13.448;2022-11-24T08:28:29;100613.94;;;1.31;100.00
29433;BME280;16405;53.964;13.448;2022-11-24T08:34:38;100613.00;;;1.36;100.00
29433;BME280;16405;53.964;13.448;2022-11-24T08:37:30;100624.91;;;1.56;100.00
29433;BME280;16405;53.964;13.448;2022-11-24T08:40:49;100628.97;;;1.77;100.00
29433;BME280;16405;53.964;13.448;2022-11-24T08:43:37;100638.25;;;1.98;100.00
29433;BME280;16405;53.964;13.448;2022-11-24T08:46:11;100632.84;;;2.13;100.00
29433;BME280;16405;53.964;13.448;2022-11-24T08:48:50;100646.59;;;2.21;100.00
29433;BME280;16405;53.964;13.448;2022-11-24T08:51:25;100639.56;;;2.28;100.00
29433;BME280;16405;53.964;13.448;2022-11-24T08:54:09;100641.41;;;2.21;100.00
29433;BME280;16405;53.964;13.448;2022-11-24T08:56:41;100639.72;;;2.16;100.00
29433;BME280;16405;53.964;13.448;2022-11-24T08:59:07;100648.47;;;2.12;100.00
29433;BME280;16405;53.964;13.448;2022-11-24T09:05:19;100643.31;;;2.07;100.00
29433;BME280;16405;53.964;13.448;2022-11-24T09:08:09;100646.59;;;2.21;100.00
29433;BME280;16405;53.964;13.448;2022-11-24T09:10:48;100649.13;;;2.24;100.00
29433;BME280;16405;53.964;13.448;2022-11-24T09:13:21;100655.16;;;2.28;100.00
29433;BME280;16405;53.964;13.448;2022-11-24T09:16:49;100650.13;;;2.16;100.00
29433;BME280;16405;53.964;13.448;2022-11-24T09:19:59;100654.47;;;2.15;100.00
29433;BME280;16405;53.964;13.448;2022-11-24T09:23:11;100659.78;;;2.08;100.00
29433;BME280;16405;53.964;13.448;2022-11-24T09:26:10;100667.44;;;2.18;100.00
29433;BME280;16405;53.964;13.448;2022-11-24T09:32:30;100659.72;;;2.12;100.00
29433;BME280;16405;53.964;13.448;2022-11-24T09:39:58;100667.59;;;2.06;100.00
29433;BME280;16405;53.964;13.448;2022-11-24T09:42:43;100669.22;;;2.13;100.00
29433;BME280;16405;53.964;13.448;2022-11-24T09:59:39;100678.81;;;2.07;100.00
29433;BME280;16405;53.964;13.448;2022-11-24T10:05:48;100679.78;;;2.01;100.00
29433;BME280;16405;53.964;13.448;2022-11-24T10:22:44;100696.03;;;2.14;100.00
29433;BME280;16405;53.964;13.448;2022-11-24T10:32:56;100698.56;;;2.21;100.00
29433;BME280;16405;53.964;13.448;2022-11-24T10:39:22;100698.22;;;2.46;100.00
29433;BME280;16405;53.964;13.448;2022-11-24T10:45:21;100705.78;;;2.63;100.00
29433;BME280;16405;53.964;13.448;2022-11-24T10:47:58;100708.28;;;2.72;100.00
29433;BME280;16405;53.964;13.448;2022-11-24T10:57:48;100713.09;;;2.98;100.00
29433;BME280;16405;53.964;13.448;2022-11-24T11:02:50;100713.41;;;3.31;100.00
29433;BME280;16405;53.964;13.448;2022-11-24T11:05:41;100712.16;;;3.54;100.00
29433;BME280;16405;53.964;13.448;2022-11-24T11:08:27;100712.81;;;3.65;100.00
29433;BME280;16405;53.964;13.448;2022-11-24T11:11:28;100723.94;;;3.73;100.00
29433;BME280;16405;53.964;13.448;2022-11-24T11:14:09;100721.31;;;3.75;100.00
29433;BME280;16405;53.964;13.448;2022-11-24T11:17:00;100716.13;;;3.73;100.00
29433;BME280;16405;53.964;13.448;2022-11-24T11:19:40;100721.16;;;3.84;100.00
29433;BME280;16405;53.964;13.448;2022-11-24T11:22:32;100716.75;;;3.87;100.00
29433;BME280;16405;53.964;13.448;2022-11-24T11:27:53;100708.00;;;3.90;100.00
29433;BME280;16405;53.964;13.448;2022-11-24T11:30:48;100715.63;;;3.99;100.00
29433;BME280;16405;53.964;13.448;2022-11-24T11:33:34;100711.97;;;4.09;100.00
29433;BME280;16405;53.964;13.448;2022-11-24T11:36:49;100717.06;;;4.16;100.00
29433;BME280;16405;53.964;13.448;2022-11-24T11:39:40;100717.78;;;4.22;100.00
29433;BME280;16405;53.964;13.448;2022-11-24T11:48:29;100712.34;;;4.35;100.00
29433;BME280;16405;53.964;13.448;2022-11-24T11:54:07;100721.22;;;4.26;100.00
29433;BME280;16405;53.964;13.448;2022-11-24T11:56:43;100733.34;;;4.25;100.00
29433;BME280;16405;53.964;13.448;2022-11-24T11:59:30;100731.78;;;4.18;100.00
29433;BME280;16405;53.964;13.448;2022-11-24T12:04:58;100723.34;;;4.05;100.00
29433;BME280;16405;53.964;13.448;2022-11-24T12:07:49;100731.25;;;4.01;100.00
29433;BME280;16405;53.964;13.448;2022-11-24T12:10:45;100732.88;;;4.06;100.00
29433;BME280;16405;53.964;13.448;2022-11-24T12:26:09;100731.72;;;4.21;100.00
29433;BME280;16405;53.964;13.448;2022-11-24T12:50:57;100737.75;;;3.78;100.00
29433;BME280;16405;53.964;13.448;2022-11-24T12:53:36;100741.22;;;3.79;100.00
29433;BME280;16405;53.964;13.448;2022-11-24T12:56:12;100739.34;;;3.87;100.00
29433;BME280;16405;53.964;13.448;2022-11-24T12:59:11;100746.13;;;3.94;100.00
29433;BME280;16405;53.964;13.448;2022-11-24T13:06:02;100742.19;;;3.73;100.00
29433;BME280;16405;53.964;13.448;2022-11-24T13:08:48;100743.31;;;3.58;100.00
29433;BME280;16405;53.964;13.448;2022-11-24T13:17:03;100742.63;;;3.48;100.00
29433;BME280;16405;53.964;13.448;2022-11-24T13:20:29;100746.94;;;3.49;100.00
29433;BME280;16405;53.964;13.448;2022-11-24T13:23:05;100745.25;;;3.45;100.00
29433;BME280;16405;53.964;13.448;2022-11-24T13:29:36;100752.28;;;3.42;100.00
29433;BME280;16405;53.964;13.448;2022-11-24T13:39:58;100759.13;;;3.47;100.00
29433;BME280;16405;53.964;13.448;2022-11-24T13:42:28;100764.28;;;3.51;100.00
29433;BME280;16405;53.964;13.448;2022-11-24T13:48:50;100771.25;;;3.48;100.00
29433;BME280;16405;53.964;13.448;2022-11-24T13:51:51;100771.34;;;3.42;100.00
29433;BME280;16405;53.964;13.448;2022-11-24T13:54:40;100778.13;;;3.53;100.00
29433;BME280;16405;53.964;13.448;2022-11-24T13:57:37;100774.69;;;3.51;100.00
29433;BME280;16405;53.964;13.448;2022-11-24T14:00:29;100779.91;;;3.51;100.00
29433;BME280;16405;53.964;13.448;2022-11-24T14:10:20;100793.59;;;3.62;100.00
29433;BME280;16405;53.964;13.448;2022-11-24T14:13:46;100807.38;;;3.67;100.00
29433;BME280;16405;53.964;13.448;2022-11-24T14:16:41;100803.09;;;3.64;100.00
29433;BME280;16405;53.964;13.448;2022-11-24T14:19:41;100809.94;;;3.72;100.00
29433;BME280;16405;53.964;13.448;2022-11-24T14:22:48;100808.19;;;3.72;100.00
29433;BME280;16405;53.964;13.448;2022-11-24T14:25:30;100820.31;;;3.73;100.00
29433;BME280;16405;53.964;13.448;2022-11-24T14:27:58;100826.34;;;3.75;100.00
29433;BME280;16405;53.964;13.448;2022-11-24T14:30:28;100824.59;;;3.77;100.00
29433;BME280;16405;53.964;13.448;2022-11-24T14:33:03;100823.66;;;3.81;100.00
29433;BME280;16405;53.964;13.448;2022-11-24T14:35:43;100822.81;;;3.79;100.00
29433;BME280;16405;53.964;13.448;2022-11-24T14:38:11;100828.03;;;3.79;100.00
29433;BME280;16405;53.964;13.448;2022-11-24T14:41:20;100829.75;;;3.80;100.00
29433;BME280;16405;53.964;13.448;2022-11-24T14:50:37;100829.88;;;3.71;100.00
29433;BME280;16405;53.964;13.448;2022-11-24T14:53:30;100829.97;;;3.66;100.00
29433;BME280;16405;53.964;13.448;2022-11-24T14:56:09;100836.94;;;3.66;100.00
29433;BME280;16405;53.964;13.448;2022-11-24T14:58:38;100843.97;;;3.61;100.00
29433;BME280;16405;53.964;13.448;2022-11-24T15:01:21;100847.44;;;3.60;100.00
29433;BME280;16405;53.964;13.448;2022-11-24T15:04:28;100850.94;;;3.59;100.00
29433;BME280;16405;53.964;13.448;2022-11-24T15:07:39;100858.84;;;3.53;100.00
29433;BME280;16405;53.964;13.448;2022-11-24T15:10:27;100863.16;;;3.54;100.00
29433;BME280;16405;53.964;13.448;2022-11-24T15:13:20;100864.97;;;3.50;100.00
29433;BME280;16405;53.964;13.448;2022-11-24T15:16:14;100878.78;;;3.54;100.00
29433;BME280;16405;53.964;13.448;2022-11-24T15:18:44;100871.88;;;3.53;100.00
29433;BME280;16405;53.964;13.448;2022-11-24T15:21:14;100880.50;;;3.55;100.00
29433;BME280;16405;53.964;13.448;2022-11-24T15:23:41;100878.06;;;3.44;100.00
29433;BME280;16405;53.964;13.448;2022-11-24T15:26:38;100884.97;;;3.45;100.00
29433;BME280;16405;53.964;13.448;2022-11-24T15:29:30;100897.09;;;3.47;100.00
29433;BME280;16405;53.964;13.448;2022-11-24T15:32:00;100894.53;;;3.44;100.00
29433;BME280;16405;53.964;13.448;2022-11-24T15:34:49;100893.69;;;3.44;100.00
29433;BME280;16405;53.964;13.448;2022-11-24T15:37:18;100904.09;;;3.44;100.00
29433;BME280;16405;53.964;13.448;2022-11-24T15:39:59;100894.53;;;3.44;100.00
29433;BME280;16405;53.964;13.448;2022-11-24T15:49:21;100897.25;;;3.37;100.00
29433;BME280;16405;53.964;13.448;2022-11-24T15:52:31;100911.91;;;3.44;100.00
29433;BME280;16405;53.964;13.448;2022-11-24T15:55:40;100903.22;;;3.45;100.00
29433;BME280;16405;53.964;13.448;2022-11-24T16:02:20;100893.84;;;3.32;100.00
29433;BME280;16405;53.964;13.448;2022-11-24T16:05:19;100910.38;;;3.31;100.00
29433;BME280;16405;53.964;13.448;2022-11-24T16:14:49;100906.78;;;3.39;100.00
29433;BME280;16405;53.964;13.448;2022-11-24T16:17:21;100904.88;;;3.49;100.00
29433;BME280;16405;53.964;13.448;2022-11-24T16:20:11;100909.13;;;3.56;100.00
29433;BME280;16405;53.964;13.448;2022-11-24T16:22:40;100906.56;;;3.55;100.00
29433;BME280;16405;53.964;13.448;2022-11-24T16:25:20;100906.47;;;3.59;100.00
29433;BME280;16405;53.964;13.448;2022-11-24T16:28:09;100904.78;;;3.57;100.00
29433;BME280;16405;53.964;13.448;2022-11-24T16:30:40;100914.22;;;3.62;100.00
29433;BME280;16405;53.964;13.448;2022-11-24T16:33:18;100910.69;;;3.66;100.00
29433;BME280;16405;53.964;13.448;2022-11-24T16:36:09;100921.03;;;3.73;100.00
29433;BME280;16405;53.964;13.448;2022-11-24T16:39:11;100920.31;;;3.63;100.00
29433;BME280;16405;53.964;13.448;2022-11-24T16:42:19;100917.66;;;3.66;100.00
29433;BME280;16405;53.964;13.448;2022-11-24T16:44:48;100920.28;;;3.64;100.00
29433;BME280;16405;53.964;13.448;2022-11-24T16:47:58;100916.91;;;3.58;100.00
29433;BME280;16405;53.964;13.448;2022-11-24T16:50:39;100912.47;;;3.64;100.00
29433;BME280;16405;53.964;13.448;2022-11-24T16:53:17;100920.25;;;3.66;100.00
29433;BME280;16405;53.964;13.448;2022-11-24T16:56:01;100924.72;;;3.59;100.00
29433;BME280;16405;53.964;13.448;2022-11-24T16:58:50;100919.50;;;3.58;100.00
29433;BME280;16405;53.964;13.448;2022-11-24T17:01:20;100923.78;;;3.62;100.00
29433;BME280;16405;53.964;13.448;2022-11-24T17:04:09;100927.25;;;3.64;100.00
29433;BME280;16405;53.964;13.448;2022-11-24T17:06:41;100935.97;;;3.61;100.00
29433;BME280;16405;53.964;13.448;2022-11-24T17:09:50;100934.16;;;3.65;100.00
29433;BME280;16405;53.964;13.448;2022-11-24T17:12:28;100947.06;;;3.73;100.00
29433;BME280;16405;53.964;13.448;2022-11-24T17:15:10;100940.16;;;3.72;100.00
29433;BME280;16405;53.964;13.448;2022-11-24T17:18:09;100934.22;;;3.62;100.00
29433;BME280;16405;53.964;13.448;2022-11-24T17:20:59;100934.13;;;3.66;100.00
29433;BME280;16405;53.964;13.448;2022-11-24T17:23:28;100938.47;;;3.67;100.00
29433;BME280;16405;53.964;13.448;2022-11-24T17:26:02;100935.03;;;3.65;100.00
29433;BME280;16405;53.964;13.448;2022-11-24T17:28:49;100943.00;;;3.53;100.00
29433;BME280;16405;53.964;13.448;2022-11-24T17:31:41;100940.34;;;3.56;100.00
29433;BME280;16405;53.964;13.448;2022-11-24T17:34:20;100943.84;;;3.55;100.00